Airfield :
LOGIN :

Register | Disclaimer

   EN    FR    IT 

 










Legend :    VFR   Marginal VFR   IFR   Intensive IFR   Very Intensive IFR
Visi :
Ceiling :
>= 8 km
>= 3000ft
5 to 8 km
1000 to 3000 ft
1500m to 5 km
500 to 1000 ft
800 to 1500m
200 to 500 ft
< 800m
< 200 ft
Symbols :   Thunderstorms  Fog  Heavy snow  Heavy precipitations  Wind > 20 kt
SIGMETs :     Misc.  Thunderstorms  Icing  Turbulence  Mountain Waves  Volcanic Ashes







- Airport Elevation : 348 ft
- IATA code : STN
- Download approach charts


EGSS - London Stansted

CURRENT METAR :
  • 201750Z AUTO VRB03KT 9999 -RA BKN026 BKN031 21/18 Q1019 RESHRA

EXPIRED METARs :
  • 201720Z AUTO 17004KT 130V210 9999 FEW036/// SCT043/// //////TCU 23/17 Q1019
  • 201650Z AUTO VRB02KT 9999 FEW035 SCT046 23/17 Q1019
  • 201620Z AUTO 30004KT 270V340 9999 SCT036 BKN043 23/17 Q1019
  • 201550Z AUTO VRB03KT 9999 BKN040 23/17 Q1019
  • 201520Z AUTO VRB01KT 9999 FEW043 22/17 Q1020

TAF TAF EGSS
Valid from the 20 at 18:00 until the 22 at 00:00 UTC


201654Z 2018/2124 25004KT 9999 BKN030
PROB30
TEMPO 2018/2021 6000 SHRA
ATIS : +44 1279 669 325
No reported NOTAMs for that airfield.



MET'MAP, your aeronautical weather chart ! - Copyright ORBIFLY December 2007 - Disclaimer

ORBIFLY MET'MAP TEAM :

Programming & Development : Alexandra Zaïnal
Concept & Development : Baudouin d'Aumeries
Co-Development & Prog : Marc-Olivier Méhu
Technical & hardware support : Manuel Goepfert

Contact : metmap@orbifly.com




SOURCES & CREDITS :

   NOAA